This is the latest recevied weather packets stored in our database for station/object N3EDS. If no packets are shown the sender has not sent any weather packets the latest 10 day(s).
| Time | Temp. | Humidity | Pressure | Rain* | Wind** | Luminosity | Snow |
|---|---|---|---|---|---|---|---|
| 1777844978 | 11.67° C | 43% | 1014.6 hPa | 0 mm | - | 96 W/m² | - |
| 1777844675 | 12.22° C | 42% | 1014.7 hPa | 0 mm | - | 120 W/m² | - |
| 1777844372 | 11.67° C | 45% | 1015 hPa | 0 mm | - | 120 W/m² | - |
| 1777844071 | 11.67° C | 44% | 1014.9 hPa | 0 mm | - | 98 W/m² | - |
| 1777843766 | 11.67° C | 42% | 1014.8 hPa | 0 mm | - | 90 W/m² | - |
| 1777843464 | 11.67° C | 44% | 1014.8 hPa | 0 mm | - | 118 W/m² | - |
| 1777843161 | 11.67° C | 43% | 1015.2 hPa | 0 mm | - | 272 W/m² | - |
| 1777842858 | 12.22° C | 42% | 1014.7 hPa | 0 mm | - | 483 W/m² | - |
| 1777842553 | 11.67° C | 44% | 1014.7 hPa | 0 mm | - | 485 W/m² | - |
| 1777842250 | 11.67° C | 45% | 1014.8 hPa | 0 mm | - | 184 W/m² | - |
| 1777841945 | 12.22° C | 43% | 1014.9 hPa | 0 mm | - | 103 W/m² | - |
| 1777841643 | 11.67° C | 45% | 1015 hPa | 0 mm | - | 191 W/m² | - |
| 1777841339 | 11.67° C | 44% | 1015.2 hPa | 0 mm | - | 138 W/m² | - |
| 1777841036 | 12.22° C | 43% | 1014.9 hPa | 0 mm | - | 230 W/m² | - |
| 1777840733 | 12.78° C | 44% | 1015 hPa | 0 mm | - | 160 W/m² | - |
| 1777840430 | 11.11° C | 45% | 1015.4 hPa | 0 mm | - | 424 W/m² | - |
| 1777840127 | 11.67° C | 44% | 1015.2 hPa | 0 mm | - | 144 W/m² | - |
| 1777839825 | 12.22° C | 43% | 1015.3 hPa | 0 mm | - | 142 W/m² | - |
| 1777839524 | 11.11° C | 45% | 1015.3 hPa | 0 mm | - | 236 W/m² | - |
| 1777839220 | 12.22° C | 42% | 1015.4 hPa | 0 mm | - | 187 W/m² | - |
| 1777838918 | 11.67° C | 42% | 1015.4 hPa | 0 mm | - | 745 W/m² | - |
| 1777838613 | 11.11° C | 44% | 1015.4 hPa | 0 mm | - | 231 W/m² | - |
| 1777838311 | 11.67° C | 46% | 1015.4 hPa | 0 mm | - | 325 W/m² | - |
| 1777838007 | 11.67° C | 42% | 1015.4 hPa | 0 mm | - | 744 W/m² | - |
| 1777837705 | 11.11° C | 45% | 1015.5 hPa | 0 mm | - | 170 W/m² | - |
* Rain latest hour (hover to see other rain measurements)
** Current wind speed in m/s (hover to see current wind gust speed)